sensor_id;sensor_type;location;lat;lon;timestamp;temperature;humidity
65072;DHT22;51663;52.310;17.016;2024-03-25T00:01:45;28.60;28.70
65072;DHT22;51663;52.310;17.016;2024-03-25T00:04:47;28.50;28.80
65072;DHT22;51663;52.310;17.016;2024-03-25T00:07:48;28.70;28.70
65072;DHT22;51663;52.310;17.016;2024-03-25T00:10:50;28.70;28.40
65072;DHT22;51663;52.310;17.016;2024-03-25T00:13:51;28.80;28.40
65072;DHT22;51663;52.310;17.016;2024-03-25T00:16:52;28.80;28.60
65072;DHT22;51663;52.310;17.016;2024-03-25T00:19:53;28.80;28.50
65072;DHT22;51663;52.310;17.016;2024-03-25T00:22:55;28.90;28.30
65072;DHT22;51663;52.310;17.016;2024-03-25T00:25:56;29.00;28.20
65072;DHT22;51663;52.310;17.016;2024-03-25T00:28:57;29.10;28.40
65072;DHT22;51663;52.310;17.016;2024-03-25T00:31:58;29.10;28.50
65072;DHT22;51663;52.310;17.016;2024-03-25T00:35:00;29.20;28.50
65072;DHT22;51663;52.310;17.016;2024-03-25T00:38:01;29.30;28.50
65072;DHT22;51663;52.310;17.016;2024-03-25T00:41:02;29.10;28.50
65072;DHT22;51663;52.310;17.016;2024-03-25T00:44:04;29.30;28.50
65072;DHT22;51663;52.310;17.016;2024-03-25T00:47:05;29.20;28.40
65072;DHT22;51663;52.310;17.016;2024-03-25T00:50:06;29.10;28.30
65072;DHT22;51663;52.310;17.016;2024-03-25T00:53:08;29.10;28.40
65072;DHT22;51663;52.310;17.016;2024-03-25T00:56:09;29.20;28.70
65072;DHT22;51663;52.310;17.016;2024-03-25T00:59:11;29.10;28.30
65072;DHT22;51663;52.310;17.016;2024-03-25T01:02:12;29.20;28.50
65072;DHT22;51663;52.310;17.016;2024-03-25T01:05:13;29.10;28.50
65072;DHT22;51663;52.310;17.016;2024-03-25T01:08:14;29.30;28.60
65072;DHT22;51663;52.310;17.016;2024-03-25T01:11:16;29.20;28.40
65072;DHT22;51663;52.310;17.016;2024-03-25T01:14:17;29.10;28.10
65072;DHT22;51663;52.310;17.016;2024-03-25T01:17:19;28.90;28.40
65072;DHT22;51663;52.310;17.016;2024-03-25T01:20:20;28.90;28.30
65072;DHT22;51663;52.310;17.016;2024-03-25T01:23:22;29.00;28.50
65072;DHT22;51663;52.310;17.016;2024-03-25T01:26:23;28.90;28.40
65072;DHT22;51663;52.310;17.016;2024-03-25T01:29:24;28.90;28.50
65072;DHT22;51663;52.310;17.016;2024-03-25T01:32:25;28.80;28.30
65072;DHT22;51663;52.310;17.016;2024-03-25T01:35:26;28.90;28.50
65072;DHT22;51663;52.310;17.016;2024-03-25T01:38:27;28.80;28.60
65072;DHT22;51663;52.310;17.016;2024-03-25T01:41:29;28.40;28.70
65072;DHT22;51663;52.310;17.016;2024-03-25T01:44:30;28.40;28.80
65072;DHT22;51663;52.310;17.016;2024-03-25T01:47:32;28.30;29.00
65072;DHT22;51663;52.310;17.016;2024-03-25T01:50:41;28.50;28.90
65072;DHT22;51663;52.310;17.016;2024-03-25T01:53:44;28.30;28.90
65072;DHT22;51663;52.310;17.016;2024-03-25T01:56:45;28.40;28.90
65072;DHT22;51663;52.310;17.016;2024-03-25T01:59:47;28.40;29.10
65072;DHT22;51663;52.310;17.016;2024-03-25T02:02:49;28.30;29.30
65072;DHT22;51663;52.310;17.016;2024-03-25T02:05:55;28.40;29.30
65072;DHT22;51663;52.310;17.016;2024-03-25T02:08:58;28.50;29.40
65072;DHT22;51663;52.310;17.016;2024-03-25T02:12:01;28.30;29.40
65072;DHT22;51663;52.310;17.016;2024-03-25T02:15:04;28.20;29.70
65072;DHT22;51663;52.310;17.016;2024-03-25T02:18:06;28.20;29.50
65072;DHT22;51663;52.310;17.016;2024-03-25T02:21:07;28.20;29.70
65072;DHT22;51663;52.310;17.016;2024-03-25T02:24:10;28.00;29.60
65072;DHT22;51663;52.310;17.016;2024-03-25T02:27:11;28.10;29.80
65072;DHT22;51663;52.310;17.016;2024-03-25T02:30:16;28.40;29.70
65072;DHT22;51663;52.310;17.016;2024-03-25T02:33:17;28.70;29.60
65072;DHT22;51663;52.310;17.016;2024-03-25T02:36:18;28.80;29.50
65072;DHT22;51663;52.310;17.016;2024-03-25T02:39:20;28.70;29.30
65072;DHT22;51663;52.310;17.016;2024-03-25T02:42:22;28.80;29.30
65072;DHT22;51663;52.310;17.016;2024-03-25T02:45:23;28.90;29.40
65072;DHT22;51663;52.310;17.016;2024-03-25T02:48:24;28.70;29.20
65072;DHT22;51663;52.310;17.016;2024-03-25T02:51:25;28.80;29.30
65072;DHT22;51663;52.310;17.016;2024-03-25T02:54:27;28.90;29.20
65072;DHT22;51663;52.310;17.016;2024-03-25T02:57:28;28.80;29.30
65072;DHT22;51663;52.310;17.016;2024-03-25T03:00:29;28.80;29.30
65072;DHT22;51663;52.310;17.016;2024-03-25T03:03:30;28.90;29.10
65072;DHT22;51663;52.310;17.016;2024-03-25T03:06:31;28.80;29.00
65072;DHT22;51663;52.310;17.016;2024-03-25T03:09:33;28.90;28.90
65072;DHT22;51663;52.310;17.016;2024-03-25T03:12:34;28.90;28.90
65072;DHT22;51663;52.310;17.016;2024-03-25T03:15:35;29.10;29.00
65072;DHT22;51663;52.310;17.016;2024-03-25T03:18:37;29.10;28.90
65072;DHT22;51663;52.310;17.016;2024-03-25T03:21:38;29.30;28.70
65072;DHT22;51663;52.310;17.016;2024-03-25T03:24:40;29.30;28.70
65072;DHT22;51663;52.310;17.016;2024-03-25T03:27:41;29.20;28.60
65072;DHT22;51663;52.310;17.016;2024-03-25T03:30:42;29.20;28.70
65072;DHT22;51663;52.310;17.016;2024-03-25T03:33:43;29.10;28.70
65072;DHT22;51663;52.310;17.016;2024-03-25T03:36:45;29.10;28.70
65072;DHT22;51663;52.310;17.016;2024-03-25T03:39:46;29.00;28.80
65072;DHT22;51663;52.310;17.016;2024-03-25T03:42:47;28.90;28.70
65072;DHT22;51663;52.310;17.016;2024-03-25T03:45:48;28.90;29.00
65072;DHT22;51663;52.310;17.016;2024-03-25T03:48:50;29.00;28.80
65072;DHT22;51663;52.310;17.016;2024-03-25T03:51:51;29.00;29.00
65072;DHT22;51663;52.310;17.016;2024-03-25T03:54:52;28.90;29.00
65072;DHT22;51663;52.310;17.016;2024-03-25T03:57:53;28.90;28.90
65072;DHT22;51663;52.310;17.016;2024-03-25T04:00:54;28.90;28.90
65072;DHT22;51663;52.310;17.016;2024-03-25T04:03:56;28.90;29.00
65072;DHT22;51663;52.310;17.016;2024-03-25T04:06:57;29.00;29.00
65072;DHT22;51663;52.310;17.016;2024-03-25T04:09:58;29.00;29.00
65072;DHT22;51663;52.310;17.016;2024-03-25T04:13:01;29.00;29.00
65072;DHT22;51663;52.310;17.016;2024-03-25T04:16:06;28.90;29.00
65072;DHT22;51663;52.310;17.016;2024-03-25T04:19:07;29.00;28.90
65072;DHT22;51663;52.310;17.016;2024-03-25T04:22:08;29.00;29.00
65072;DHT22;51663;52.310;17.016;2024-03-25T04:25:10;29.20;29.00
65072;DHT22;51663;52.310;17.016;2024-03-25T04:28:12;29.00;29.00
65072;DHT22;51663;52.310;17.016;2024-03-25T04:31:13;29.10;29.20
65072;DHT22;51663;52.310;17.016;2024-03-25T04:34:14;29.00;29.00
65072;DHT22;51663;52.310;17.016;2024-03-25T04:37:15;29.00;29.00
65072;DHT22;51663;52.310;17.016;2024-03-25T04:40:16;29.10;29.10
65072;DHT22;51663;52.310;17.016;2024-03-25T04:43:20;29.10;29.00
65072;DHT22;51663;52.310;17.016;2024-03-25T04:46:21;29.20;29.10
65072;DHT22;51663;52.310;17.016;2024-03-25T04:49:22;29.20;29.30
65072;DHT22;51663;52.310;17.016;2024-03-25T04:52:24;29.10;29.60
65072;DHT22;51663;52.310;17.016;2024-03-25T04:55:27;29.20;29.10
65072;DHT22;51663;52.310;17.016;2024-03-25T04:58:28;29.10;29.00
65072;DHT22;51663;52.310;17.016;2024-03-25T05:01:29;29.20;29.60
65072;DHT22;51663;52.310;17.016;2024-03-25T05:04:31;29.20;29.10
65072;DHT22;51663;52.310;17.016;2024-03-25T05:07:32;29.10;29.10
65072;DHT22;51663;52.310;17.016;2024-03-25T05:10:33;29.10;29.10
65072;DHT22;51663;52.310;17.016;2024-03-25T05:13:34;29.10;29.10
65072;DHT22;51663;52.310;17.016;2024-03-25T05:16:36;29.20;29.10
65072;DHT22;51663;52.310;17.016;2024-03-25T05:19:40;29.20;29.10
65072;DHT22;51663;52.310;17.016;2024-03-25T05:22:41;29.20;29.10
65072;DHT22;51663;52.310;17.016;2024-03-25T05:25:42;29.30;29.20
65072;DHT22;51663;52.310;17.016;2024-03-25T05:28:43;29.30;29.10
65072;DHT22;51663;52.310;17.016;2024-03-25T05:31:59;29.40;29.20
65072;DHT22;51663;52.310;17.016;2024-03-25T05:35:00;29.30;29.20
65072;DHT22;51663;52.310;17.016;2024-03-25T05:38:01;29.40;29.10
65072;DHT22;51663;52.310;17.016;2024-03-25T05:41:04;29.50;29.10
65072;DHT22;51663;52.310;17.016;2024-03-25T05:44:05;29.60;29.10
65072;DHT22;51663;52.310;17.016;2024-03-25T05:47:06;29.50;29.10
65072;DHT22;51663;52.310;17.016;2024-03-25T05:50:08;28.80;29.20
65072;DHT22;51663;52.310;17.016;2024-03-25T05:53:09;28.80;29.40
65072;DHT22;51663;52.310;17.016;2024-03-25T05:56:11;28.90;29.50
65072;DHT22;51663;52.310;17.016;2024-03-25T05:59:12;29.00;29.40
65072;DHT22;51663;52.310;17.016;2024-03-25T06:02:14;29.20;29.20
65072;DHT22;51663;52.310;17.016;2024-03-25T06:05:15;29.30;29.30
65072;DHT22;51663;52.310;17.016;2024-03-25T06:08:16;29.40;29.30
65072;DHT22;51663;52.310;17.016;2024-03-25T06:11:26;29.30;29.40
65072;DHT22;51663;52.310;17.016;2024-03-25T06:14:28;29.40;29.50
65072;DHT22;51663;52.310;17.016;2024-03-25T06:17:29;29.40;29.50
65072;DHT22;51663;52.310;17.016;2024-03-25T06:20:33;29.50;29.40
65072;DHT22;51663;52.310;17.016;2024-03-25T06:23:34;29.50;29.30
65072;DHT22;51663;52.310;17.016;2024-03-25T06:26:35;29.50;29.40
65072;DHT22;51663;52.310;17.016;2024-03-25T06:29:36;29.50;29.40
65072;DHT22;51663;52.310;17.016;2024-03-25T06:32:38;29.50;29.50
65072;DHT22;51663;52.310;17.016;2024-03-25T06:35:57;29.50;29.40
65072;DHT22;51663;52.310;17.016;2024-03-25T06:38:59;29.60;29.50
65072;DHT22;51663;52.310;17.016;2024-03-25T06:42:00;29.70;29.50
65072;DHT22;51663;52.310;17.016;2024-03-25T06:45:02;29.80;29.30
65072;DHT22;51663;52.310;17.016;2024-03-25T06:48:03;29.80;29.20
65072;DHT22;51663;52.310;17.016;2024-03-25T06:51:05;30.00;29.10
65072;DHT22;51663;52.310;17.016;2024-03-25T06:54:06;30.10;29.10
65072;DHT22;51663;52.310;17.016;2024-03-25T06:57:09;30.10;29.20
65072;DHT22;51663;52.310;17.016;2024-03-25T07:00:11;30.20;29.20
65072;DHT22;51663;52.310;17.016;2024-03-25T07:03:15;30.20;29.30
65072;DHT22;51663;52.310;17.016;2024-03-25T07:06:18;30.20;29.00
65072;DHT22;51663;52.310;17.016;2024-03-25T07:09:21;30.20;29.10
65072;DHT22;51663;52.310;17.016;2024-03-25T07:12:23;30.20;29.20
65072;DHT22;51663;52.310;17.016;2024-03-25T07:15:24;30.30;29.20
65072;DHT22;51663;52.310;17.016;2024-03-25T07:18:26;30.30;29.10
65072;DHT22;51663;52.310;17.016;2024-03-25T07:21:27;30.30;29.10
65072;DHT22;51663;52.310;17.016;2024-03-25T07:24:28;30.30;29.10
65072;DHT22;51663;52.310;17.016;2024-03-25T07:27:30;30.30;29.10
65072;DHT22;51663;52.310;17.016;2024-03-25T07:30:31;30.30;29.10
65072;DHT22;51663;52.310;17.016;2024-03-25T07:33:33;30.30;29.30
65072;DHT22;51663;52.310;17.016;2024-03-25T07:36:34;30.30;29.30
65072;DHT22;51663;52.310;17.016;2024-03-25T07:39:36;30.30;29.40
65072;DHT22;51663;52.310;17.016;2024-03-25T07:42:38;30.40;29.40
65072;DHT22;51663;52.310;17.016;2024-03-25T07:45:40;30.40;29.40
65072;DHT22;51663;52.310;17.016;2024-03-25T07:48:41;30.30;29.30
65072;DHT22;51663;52.310;17.016;2024-03-25T07:51:43;30.40;29.60
65072;DHT22;51663;52.310;17.016;2024-03-25T07:54:44;30.40;29.30
65072;DHT22;51663;52.310;17.016;2024-03-25T07:57:45;30.50;29.40
65072;DHT22;51663;52.310;17.016;2024-03-25T08:00:47;30.60;29.40
65072;DHT22;51663;52.310;17.016;2024-03-25T08:03:48;30.60;29.20
65072;DHT22;51663;52.310;17.016;2024-03-25T08:06:50;30.60;29.30
65072;DHT22;51663;52.310;17.016;2024-03-25T08:09:51;30.90;29.00
65072;DHT22;51663;52.310;17.016;2024-03-25T08:12:54;30.80;29.50
65072;DHT22;51663;52.310;17.016;2024-03-25T08:15:55;30.80;29.00
65072;DHT22;51663;52.310;17.016;2024-03-25T08:18:56;30.80;29.00
65072;DHT22;51663;52.310;17.016;2024-03-25T08:21:58;30.80;28.80
65072;DHT22;51663;52.310;17.016;2024-03-25T08:25:00;30.60;28.80
65072;DHT22;51663;52.310;17.016;2024-03-25T08:28:02;30.50;29.00
65072;DHT22;51663;52.310;17.016;2024-03-25T08:31:04;30.50;29.20
65072;DHT22;51663;52.310;17.016;2024-03-25T08:34:05;30.50;29.40
65072;DHT22;51663;52.310;17.016;2024-03-25T08:37:08;30.50;29.40
65072;DHT22;51663;52.310;17.016;2024-03-25T08:40:09;30.40;29.30
65072;DHT22;51663;52.310;17.016;2024-03-25T08:43:11;30.40;29.50
65072;DHT22;51663;52.310;17.016;2024-03-25T08:46:15;30.00;29.70
65072;DHT22;51663;52.310;17.016;2024-03-25T08:49:16;29.80;29.70
65072;DHT22;51663;52.310;17.016;2024-03-25T08:52:18;29.70;30.00
65072;DHT22;51663;52.310;17.016;2024-03-25T08:55:19;29.70;30.00
65072;DHT22;51663;52.310;17.016;2024-03-25T08:58:23;29.80;30.00
65072;DHT22;51663;52.310;17.016;2024-03-25T09:01:27;29.80;30.00
65072;DHT22;51663;52.310;17.016;2024-03-25T09:04:28;29.80;30.00
65072;DHT22;51663;52.310;17.016;2024-03-25T09:07:34;29.70;30.00
65072;DHT22;51663;52.310;17.016;2024-03-25T09:10:35;29.70;30.00
65072;DHT22;51663;52.310;17.016;2024-03-25T09:13:55;29.90;29.90
65072;DHT22;51663;52.310;17.016;2024-03-25T09:16:56;30.30;29.80
65072;DHT22;51663;52.310;17.016;2024-03-25T09:19:57;30.20;29.30
65072;DHT22;51663;52.310;17.016;2024-03-25T09:22:59;30.40;29.70
65072;DHT22;51663;52.310;17.016;2024-03-25T09:26:00;30.60;29.10
65072;DHT22;51663;52.310;17.016;2024-03-25T09:29:02;30.30;29.50
65072;DHT22;51663;52.310;17.016;2024-03-25T09:32:04;30.60;29.10
65072;DHT22;51663;52.310;17.016;2024-03-25T09:35:05;30.60;29.50
65072;DHT22;51663;52.310;17.016;2024-03-25T09:38:07;30.80;29.60
65072;DHT22;51663;52.310;17.016;2024-03-25T09:41:09;30.90;29.70
65072;DHT22;51663;52.310;17.016;2024-03-25T09:44:10;31.10;29.50
65072;DHT22;51663;52.310;17.016;2024-03-25T09:47:11;31.20;29.10
65072;DHT22;51663;52.310;17.016;2024-03-25T09:50:14;30.80;29.20
65072;DHT22;51663;52.310;17.016;2024-03-25T09:53:22;30.50;28.80
65072;DHT22;51663;52.310;17.016;2024-03-25T09:56:24;30.40;28.80
65072;DHT22;51663;52.310;17.016;2024-03-25T09:59:27;30.20;29.00
65072;DHT22;51663;52.310;17.016;2024-03-25T10:02:30;30.10;29.50
65072;DHT22;51663;52.310;17.016;2024-03-25T10:05:33;29.70;29.20
65072;DHT22;51663;52.310;17.016;2024-03-25T10:08:34;28.40;30.30
65072;DHT22;51663;52.310;17.016;2024-03-25T10:11:35;27.50;32.00
65072;DHT22;51663;52.310;17.016;2024-03-25T10:14:39;27.10;32.80
65072;DHT22;51663;52.310;17.016;2024-03-25T10:17:41;27.80;32.80
65072;DHT22;51663;52.310;17.016;2024-03-25T10:20:52;27.20;32.80
65072;DHT22;51663;52.310;17.016;2024-03-25T10:23:54;27.20;32.90
65072;DHT22;51663;52.310;17.016;2024-03-25T10:26:56;26.80;33.50
65072;DHT22;51663;52.310;17.016;2024-03-25T10:30:00;27.90;33.40
65072;DHT22;51663;52.310;17.016;2024-03-25T10:33:03;28.10;32.80
65072;DHT22;51663;52.310;17.016;2024-03-25T10:36:05;28.70;31.90
65072;DHT22;51663;52.310;17.016;2024-03-25T10:39:08;28.90;32.10
65072;DHT22;51663;52.310;17.016;2024-03-25T10:42:13;29.30;31.50
65072;DHT22;51663;52.310;17.016;2024-03-25T10:45:15;29.60;30.60
65072;DHT22;51663;52.310;17.016;2024-03-25T10:48:27;29.80;30.10
65072;DHT22;51663;52.310;17.016;2024-03-25T10:51:29;29.90;30.10
65072;DHT22;51663;52.310;17.016;2024-03-25T10:54:33;29.80;30.10
65072;DHT22;51663;52.310;17.016;2024-03-25T10:57:35;29.90;30.40
65072;DHT22;51663;52.310;17.016;2024-03-25T11:00:38;30.40;30.80
65072;DHT22;51663;52.310;17.016;2024-03-25T11:03:39;30.80;29.80
65072;DHT22;51663;52.310;17.016;2024-03-25T11:06:41;31.00;28.90
65072;DHT22;51663;52.310;17.016;2024-03-25T11:09:42;31.00;29.00
65072;DHT22;51663;52.310;17.016;2024-03-25T11:12:44;31.30;28.30
65072;DHT22;51663;52.310;17.016;2024-03-25T11:15:48;31.50;28.30
65072;DHT22;51663;52.310;17.016;2024-03-25T11:18:53;30.30;28.00
65072;DHT22;51663;52.310;17.016;2024-03-25T11:21:57;30.40;28.90
65072;DHT22;51663;52.310;17.016;2024-03-25T11:25:11;30.30;29.20
65072;DHT22;51663;52.310;17.016;2024-03-25T11:28:12;30.30;28.60
65072;DHT22;51663;52.310;17.016;2024-03-25T11:31:15;30.50;29.00
65072;DHT22;51663;52.310;17.016;2024-03-25T11:34:16;30.60;28.30
65072;DHT22;51663;52.310;17.016;2024-03-25T11:37:17;30.80;27.80
65072;DHT22;51663;52.310;17.016;2024-03-25T11:40:19;30.70;27.50
65072;DHT22;51663;52.310;17.016;2024-03-25T11:43:22;30.50;27.90
65072;DHT22;51663;52.310;17.016;2024-03-25T11:46:26;30.70;27.40
65072;DHT22;51663;52.310;17.016;2024-03-25T11:49:28;30.90;27.60
65072;DHT22;51663;52.310;17.016;2024-03-25T11:52:32;30.90;27.40
65072;DHT22;51663;52.310;17.016;2024-03-25T11:55:34;30.80;27.20
65072;DHT22;51663;52.310;17.016;2024-03-25T11:58:35;30.80;27.20
65072;DHT22;51663;52.310;17.016;2024-03-25T12:01:37;30.90;27.60
65072;DHT22;51663;52.310;17.016;2024-03-25T12:04:42;31.00;27.40
65072;DHT22;51663;52.310;17.016;2024-03-25T12:07:44;31.10;27.20
65072;DHT22;51663;52.310;17.016;2024-03-25T12:10:45;31.30;27.10
65072;DHT22;51663;52.310;17.016;2024-03-25T12:14:05;31.50;27.30
65072;DHT22;51663;52.310;17.016;2024-03-25T12:17:06;31.50;26.70
65072;DHT22;51663;52.310;17.016;2024-03-25T12:20:08;31.90;27.00
65072;DHT22;51663;52.310;17.016;2024-03-25T12:23:10;32.10;27.50
65072;DHT22;51663;52.310;17.016;2024-03-25T12:26:11;32.40;26.80
65072;DHT22;51663;52.310;17.016;2024-03-25T12:29:13;32.50;26.80
65072;DHT22;51663;52.310;17.016;2024-03-25T12:32:14;32.20;26.90
65072;DHT22;51663;52.310;17.016;2024-03-25T12:35:17;32.10;26.90
65072;DHT22;51663;52.310;17.016;2024-03-25T12:38:26;32.20;27.10
65072;DHT22;51663;52.310;17.016;2024-03-25T12:41:27;32.40;27.10
65072;DHT22;51663;52.310;17.016;2024-03-25T12:44:28;32.00;27.00
65072;DHT22;51663;52.310;17.016;2024-03-25T12:47:30;32.10;26.60
65072;DHT22;51663;52.310;17.016;2024-03-25T12:50:35;32.00;25.80
65072;DHT22;51663;52.310;17.016;2024-03-25T12:53:36;32.20;25.50
65072;DHT22;51663;52.310;17.016;2024-03-25T12:56:44;32.30;25.20
65072;DHT22;51663;52.310;17.016;2024-03-25T12:59:50;31.90;25.40
65072;DHT22;51663;52.310;17.016;2024-03-25T13:02:51;32.10;25.90
65072;DHT22;51663;52.310;17.016;2024-03-25T13:05:53;32.30;26.10
65072;DHT22;51663;52.310;17.016;2024-03-25T13:08:55;32.30;25.60
65072;DHT22;51663;52.310;17.016;2024-03-25T13:11:57;32.50;25.50
65072;DHT22;51663;52.310;17.016;2024-03-25T13:14:59;32.40;25.80
65072;DHT22;51663;52.310;17.016;2024-03-25T13:18:00;32.70;26.00
65072;DHT22;51663;52.310;17.016;2024-03-25T13:21:01;32.20;26.40
65072;DHT22;51663;52.310;17.016;2024-03-25T13:24:03;32.40;26.30
65072;DHT22;51663;52.310;17.016;2024-03-25T13:27:04;32.10;26.00
65072;DHT22;51663;52.310;17.016;2024-03-25T13:30:06;32.00;25.90
65072;DHT22;51663;52.310;17.016;2024-03-25T13:33:08;32.10;26.10
65072;DHT22;51663;52.310;17.016;2024-03-25T13:36:09;32.50;25.80
65072;DHT22;51663;52.310;17.016;2024-03-25T13:39:10;32.60;25.70
65072;DHT22;51663;52.310;17.016;2024-03-25T13:42:12;32.60;25.00
65072;DHT22;51663;52.310;17.016;2024-03-25T13:45:13;32.50;25.30
65072;DHT22;51663;52.310;17.016;2024-03-25T13:48:15;32.40;24.90
65072;DHT22;51663;52.310;17.016;2024-03-25T13:51:17;32.50;25.00
65072;DHT22;51663;52.310;17.016;2024-03-25T13:54:18;32.60;24.70
65072;DHT22;51663;52.310;17.016;2024-03-25T13:57:19;32.60;25.10
65072;DHT22;51663;52.310;17.016;2024-03-25T14:00:20;32.20;25.30
65072;DHT22;51663;52.310;17.016;2024-03-25T14:03:23;31.70;26.00
65072;DHT22;51663;52.310;17.016;2024-03-25T14:06:25;31.10;26.50
65072;DHT22;51663;52.310;17.016;2024-03-25T14:09:27;29.40;28.60
65072;DHT22;51663;52.310;17.016;2024-03-25T14:12:29;28.50;29.90
65072;DHT22;51663;52.310;17.016;2024-03-25T14:15:34;28.00;30.20
65072;DHT22;51663;52.310;17.016;2024-03-25T14:18:36;28.90;29.50
65072;DHT22;51663;52.310;17.016;2024-03-25T14:21:37;28.00;29.20
65072;DHT22;51663;52.310;17.016;2024-03-25T14:24:39;28.80;29.20
65072;DHT22;51663;52.310;17.016;2024-03-25T14:27:40;29.90;29.10
65072;DHT22;51663;52.310;17.016;2024-03-25T14:30:42;30.50;28.70
65072;DHT22;51663;52.310;17.016;2024-03-25T14:33:44;31.10;27.70
65072;DHT22;51663;52.310;17.016;2024-03-25T14:36:45;31.50;27.10
65072;DHT22;51663;52.310;17.016;2024-03-25T14:39:46;31.00;26.80
65072;DHT22;51663;52.310;17.016;2024-03-25T14:42:47;31.10;26.80
65072;DHT22;51663;52.310;17.016;2024-03-25T14:45:49;31.50;25.90
65072;DHT22;51663;52.310;17.016;2024-03-25T14:48:50;31.60;25.90
65072;DHT22;51663;52.310;17.016;2024-03-25T14:51:52;31.80;25.50
65072;DHT22;51663;52.310;17.016;2024-03-25T14:54:53;31.90;26.10
65072;DHT22;51663;52.310;17.016;2024-03-25T14:57:55;31.90;25.60
65072;DHT22;51663;52.310;17.016;2024-03-25T15:00:57;32.00;24.80
65072;DHT22;51663;52.310;17.016;2024-03-25T15:03:58;31.90;25.20
65072;DHT22;51663;52.310;17.016;2024-03-25T15:07:00;32.00;25.40
65072;DHT22;51663;52.310;17.016;2024-03-25T15:10:01;32.00;25.40
65072;DHT22;51663;52.310;17.016;2024-03-25T15:13:03;32.10;25.60
65072;DHT22;51663;52.310;17.016;2024-03-25T15:16:06;32.00;25.80
65072;DHT22;51663;52.310;17.016;2024-03-25T15:19:08;32.10;25.20
65072;DHT22;51663;52.310;17.016;2024-03-25T15:22:09;32.00;25.40
65072;DHT22;51663;52.310;17.016;2024-03-25T15:25:11;32.00;25.10
65072;DHT22;51663;52.310;17.016;2024-03-25T15:28:12;31.80;25.40
65072;DHT22;51663;52.310;17.016;2024-03-25T15:31:13;31.90;25.30
65072;DHT22;51663;52.310;17.016;2024-03-25T15:34:15;31.70;25.00
65072;DHT22;51663;52.310;17.016;2024-03-25T15:37:16;31.60;24.80
65072;DHT22;51663;52.310;17.016;2024-03-25T15:40:17;31.70;25.50
65072;DHT22;51663;52.310;17.016;2024-03-25T15:43:19;31.70;25.30
65072;DHT22;51663;52.310;17.016;2024-03-25T15:46:20;31.50;25.00
65072;DHT22;51663;52.310;17.016;2024-03-25T15:49:23;31.70;25.00
65072;DHT22;51663;52.310;17.016;2024-03-25T15:52:24;31.50;25.10
65072;DHT22;51663;52.310;17.016;2024-03-25T15:55:25;31.50;25.40
65072;DHT22;51663;52.310;17.016;2024-03-25T15:58:27;31.40;25.40
65072;DHT22;51663;52.310;17.016;2024-03-25T16:01:28;31.10;25.80
65072;DHT22;51663;52.310;17.016;2024-03-25T16:04:30;31.20;26.00
65072;DHT22;51663;52.310;17.016;2024-03-25T16:07:31;31.10;26.10
65072;DHT22;51663;52.310;17.016;2024-03-25T16:10:34;31.30;26.10
65072;DHT22;51663;52.310;17.016;2024-03-25T16:13:36;31.30;26.10
65072;DHT22;51663;52.310;17.016;2024-03-25T16:16:43;31.30;25.90
65072;DHT22;51663;52.310;17.016;2024-03-25T16:19:44;31.20;25.70
65072;DHT22;51663;52.310;17.016;2024-03-25T16:22:50;31.10;26.00
65072;DHT22;51663;52.310;17.016;2024-03-25T16:25:52;30.90;26.00
65072;DHT22;51663;52.310;17.016;2024-03-25T16:28:53;30.90;25.80
65072;DHT22;51663;52.310;17.016;2024-03-25T16:31:54;30.80;25.80
65072;DHT22;51663;52.310;17.016;2024-03-25T16:34:56;30.90;25.70
65072;DHT22;51663;52.310;17.016;2024-03-25T16:37:57;30.40;25.80
65072;DHT22;51663;52.310;17.016;2024-03-25T16:40:59;30.30;26.10
65072;DHT22;51663;52.310;17.016;2024-03-25T16:44:01;30.20;26.10
65072;DHT22;51663;52.310;17.016;2024-03-25T16:47:03;30.20;26.30
65072;DHT22;51663;52.310;17.016;2024-03-25T16:50:04;30.30;26.50
65072;DHT22;51663;52.310;17.016;2024-03-25T16:53:07;30.40;26.20
65072;DHT22;51663;52.310;17.016;2024-03-25T16:56:08;30.40;26.30
65072;DHT22;51663;52.310;17.016;2024-03-25T16:59:10;30.30;26.40
65072;DHT22;51663;52.310;17.016;2024-03-25T17:02:11;30.40;26.40
65072;DHT22;51663;52.310;17.016;2024-03-25T17:05:14;30.50;26.30
65072;DHT22;51663;52.310;17.016;2024-03-25T17:08:16;30.50;26.50
65072;DHT22;51663;52.310;17.016;2024-03-25T17:11:17;30.50;26.40
65072;DHT22;51663;52.310;17.016;2024-03-25T17:14:18;30.60;26.60
65072;DHT22;51663;52.310;17.016;2024-03-25T17:17:21;30.60;26.60
65072;DHT22;51663;52.310;17.016;2024-03-25T17:20:22;30.70;26.70
65072;DHT22;51663;52.310;17.016;2024-03-25T17:23:24;30.70;26.70
65072;DHT22;51663;52.310;17.016;2024-03-25T17:26:25;30.70;26.90
65072;DHT22;51663;52.310;17.016;2024-03-25T17:29:27;30.70;26.90
65072;DHT22;51663;52.310;17.016;2024-03-25T17:32:28;30.60;27.00
65072;DHT22;51663;52.310;17.016;2024-03-25T17:35:31;30.70;27.00
65072;DHT22;51663;52.310;17.016;2024-03-25T17:38:33;30.60;27.00
65072;DHT22;51663;52.310;17.016;2024-03-25T17:41:34;30.60;27.10
65072;DHT22;51663;52.310;17.016;2024-03-25T17:44:35;30.60;27.00
65072;DHT22;51663;52.310;17.016;2024-03-25T17:47:37;30.70;27.00
65072;DHT22;51663;52.310;17.016;2024-03-25T17:50:38;30.60;27.20
65072;DHT22;51663;52.310;17.016;2024-03-25T17:53:40;30.60;27.30
65072;DHT22;51663;52.310;17.016;2024-03-25T17:56:41;30.60;27.40
65072;DHT22;51663;52.310;17.016;2024-03-25T17:59:45;30.40;27.40
65072;DHT22;51663;52.310;17.016;2024-03-25T18:02:46;30.40;27.40
65072;DHT22;51663;52.310;17.016;2024-03-25T18:05:49;30.40;27.30
65072;DHT22;51663;52.310;17.016;2024-03-25T18:08:50;30.30;27.50
65072;DHT22;51663;52.310;17.016;2024-03-25T18:11:51;30.20;27.50
65072;DHT22;51663;52.310;17.016;2024-03-25T18:14:53;30.20;27.70
65072;DHT22;51663;52.310;17.016;2024-03-25T18:17:54;30.20;27.90
65072;DHT22;51663;52.310;17.016;2024-03-25T18:20:55;30.20;27.60
65072;DHT22;51663;52.310;17.016;2024-03-25T18:23:57;30.20;27.80
65072;DHT22;51663;52.310;17.016;2024-03-25T18:26:58;30.20;27.60
65072;DHT22;51663;52.310;17.016;2024-03-25T18:30:00;30.20;27.70
65072;DHT22;51663;52.310;17.016;2024-03-25T18:33:01;30.10;27.50
65072;DHT22;51663;52.310;17.016;2024-03-25T18:36:02;30.10;27.70
65072;DHT22;51663;52.310;17.016;2024-03-25T18:39:04;30.10;27.80
65072;DHT22;51663;52.310;17.016;2024-03-25T18:42:07;30.00;27.70
65072;DHT22;51663;52.310;17.016;2024-03-25T18:45:09;30.00;27.60
65072;DHT22;51663;52.310;17.016;2024-03-25T18:48:11;29.90;27.80
65072;DHT22;51663;52.310;17.016;2024-03-25T18:51:13;29.80;27.70